KCOD/COD METAR and TAF weather

Enter ICAO airport designator
Station Type Date Time Source
KCOD METAR 2021/01/20 21:56 UTC NOAA

KCOD 202156Z AUTO 27018G27KT 10SM CLR 06/M15 A2990 RMK AO2 PK WND 25036/2133 SLP138 T00561150


Station Type Date Time Source
KCOD Decoded METAR 2021/01/20 21:56 UTC NOAA

Cody, WY, United States (KCOD) 44-31N 109-01W 1553M
Jan 20, 2021 - 04:56 PM EST / 2021.01.20 2156 UTC
Wind: from the W (270 degrees) at 21 MPH (18 KT) gusting to 31 MPH (27 KT):0
Visibility: 10 mile(s):0
Sky conditions: clear
Temperature: 42.1 F (5.6 C)
Dew Point: 5.0 F (-15.0 C)
Relative Humidity: 21%
Pressure (altimeter): 29.9 in. Hg (1012 hPa)
ob: KCOD 202156Z AUTO 27018G27KT 10SM CLR 06/M15 A2990 RMK AO2 PK WND 25036/2133 SLP138 T00561150
cycle: 22

Station Type Date Time Source
KCOD TAF 2021/01/20 20:30 UTC NOAA

TAF
AMD KCOD 202026Z 2020/2118 28018G30KT P6SM SCT150
FM202300 28012G18KT P6SM BKN150
FM210300 25007KT P6SM BKN120
FM211700 VRB05KT P6SM BKN080

Example: see airport list